createdAt,value
2022-11-20T03:17:20.073Z,31.97
2022-11-20T03:22:34.717Z,33.63
2022-11-20T03:25:03.021Z,37.67
2022-11-20T03:27:34.914Z,38.10
2022-11-20T03:30:03.256Z,40.73
2022-11-20T03:32:34.898Z,42.63
2022-11-20T03:35:03.240Z,37.73
2022-11-20T03:37:33.834Z,37.10
2022-11-20T03:40:02.905Z,36.77
2022-11-20T03:45:31.733Z,39.87
2022-11-20T03:48:00.647Z,40.80
2022-11-20T03:50:27.903Z,42.87
2022-11-20T03:52:55.521Z,43.53
2022-11-20T03:55:23.896Z,44.90
2022-11-20T03:57:57.314Z,41.57
2022-11-20T04:00:24.965Z,41.90
2022-11-20T04:02:56.754Z,38.07
2022-11-20T04:05:24.396Z,41.93
2022-11-20T04:07:52.860Z,40.38
2022-11-20T04:10:21.205Z,38.57
2022-11-20T04:12:49.453Z,34.90
2022-11-20T04:15:20.540Z,35.20
2022-11-20T04:17:48.639Z,35.90
2022-11-20T04:20:16.793Z,37.03
2022-11-20T04:22:44.286Z,35.08
2022-11-20T04:25:11.557Z,31.50
2022-11-20T04:27:39.214Z,35.10
2022-11-20T04:30:09.673Z,37.67
2022-11-20T04:32:39.764Z,38.97
2022-11-20T04:35:08.797Z,38.85
2022-11-20T04:37:42.462Z,44.83
2022-11-20T04:40:12.697Z,41.13
2022-11-20T04:42:43.594Z,38.25
2022-11-20T04:45:21.910Z,39.10
2022-11-20T04:47:53.669Z,38.67
2022-11-20T04:50:24.379Z,38.58
2022-11-20T04:55:34.115Z,35.72
2022-11-20T04:58:02.285Z,33.10
2022-11-20T05:00:34.599Z,30.60
2022-11-20T05:03:06.424Z,30.77
2022-11-20T05:05:44.179Z,30.13
2022-11-20T05:27:08.448Z,29.67
2022-11-20T05:29:37.194Z,28.85
2022-11-20T05:32:11.013Z,29.55
2022-11-20T05:34:40.029Z,29.15
2022-11-20T05:37:09.438Z,31.47
2022-11-20T05:39:40.046Z,30.83
2022-11-20T05:42:29.043Z,29.50
2022-11-20T05:44:58.031Z,29.30
2022-11-20T05:47:35.935Z,28.73
2022-11-20T05:50:05.175Z,27.42
2022-11-20T05:52:38.153Z,27.42
2022-11-20T05:55:08.879Z,29.52
2022-11-20T05:57:37.758Z,26.65
2022-11-20T06:00:08.742Z,26.10
2022-11-20T06:02:39.861Z,29.92
2022-11-20T06:05:08.726Z,28.58
2022-11-20T06:07:37.960Z,29.50
2022-11-20T06:10:09.840Z,28.77
2022-11-20T06:12:46.368Z,27.67
2022-11-20T06:15:14.249Z,27.70
2022-11-20T06:17:43.080Z,27.43
2022-11-20T06:20:12.864Z,26.75
2022-11-20T06:22:43.411Z,27.42
2022-11-20T06:25:11.813Z,27.40
2022-11-20T06:30:32.582Z,26.85
2022-11-20T06:33:01.541Z,27.00
2022-11-20T06:35:32.950Z,27.50
2022-11-20T06:38:01.869Z,26.88
2022-11-20T06:43:40.152Z,29.92
2022-11-20T06:46:12.450Z,27.60
2022-11-20T06:48:40.630Z,24.83
2022-11-20T06:51:09.049Z,26.63
2022-11-20T06:53:37.539Z,26.33
2022-11-20T06:56:06.334Z,25.55
2022-11-20T06:58:37.458Z,24.58
2022-11-20T07:01:19.981Z,24.42
2022-11-20T07:03:54.570Z,25.90
2022-11-20T07:06:23.510Z,26.40
2022-11-20T07:08:56.755Z,27.08
2022-11-20T07:14:08.735Z,23.83
2022-11-20T07:16:54.041Z,24.05
2022-11-20T07:46:23.172Z,22.73
2022-11-20T07:48:50.317Z,21.98
2022-11-20T07:51:17.430Z,21.40
2022-11-20T07:53:44.346Z,21.63
2022-11-20T07:56:11.871Z,22.10
2022-11-20T07:58:41.492Z,21.90
2022-11-20T08:01:10.011Z,22.52
2022-11-20T08:03:39.320Z,22.85
2022-11-20T08:06:07.700Z,22.83
2022-11-20T08:08:37.840Z,22.20
2022-11-20T08:11:26.249Z,22.38
2022-11-20T08:14:12.003Z,21.77
2022-11-20T08:16:40.467Z,21.05
2022-11-20T08:19:11.570Z,23.65
2022-11-20T08:21:42.320Z,22.48
2022-11-20T08:24:12.575Z,19.58
2022-11-20T08:26:41.502Z,20.60
2022-11-20T08:29:09.868Z,20.83
2022-11-20T08:31:40.689Z,19.92
2022-11-20T08:34:16.200Z,20.97
2022-11-20T08:36:46.872Z,22.70
2022-11-20T08:39:14.973Z,21.48
2022-11-20T09:14:03.913Z,21.80
2022-11-20T09:16:35.553Z,23.80
2022-11-20T09:19:28.573Z,22.02
2022-11-20T09:21:49.553Z,23.08
2022-11-20T09:24:16.386Z,24.83
2022-11-20T09:26:43.448Z,27.43
2022-11-20T09:29:10.404Z,26.67
2022-11-20T09:31:37.320Z,30.88
2022-11-20T09:34:04.425Z,31.65
2022-11-20T09:36:31.543Z,35.97
2022-11-20T09:38:58.623Z,33.85
2022-11-20T09:41:47.122Z,33.53
2022-11-20T09:44:29.067Z,38.42
2022-11-20T09:47:07.940Z,33.63
2022-11-20T09:49:50.048Z,36.47
2022-11-20T09:52:23.203Z,32.57
2022-11-20T09:54:52.132Z,34.20
2022-11-20T09:57:24.549Z,35.15
2022-11-20T09:59:57.419Z,36.75
2022-11-20T10:02:24.290Z,47.63
2022-11-20T10:04:58.354Z,34.20
2022-11-20T10:07:34.263Z,34.85
2022-11-20T10:10:02.093Z,36.17
2022-11-20T10:12:58.256Z,35.95
2022-11-20T10:15:29.893Z,39.10
2022-11-20T10:18:06.851Z,36.28
2022-11-20T10:20:55.436Z,37.53
2022-11-20T10:23:28.204Z,38.95
2022-11-20T10:26:18.213Z,40.38
2022-11-20T10:28:58.743Z,40.58
2022-11-20T10:31:46.384Z,41.80
2022-11-20T10:35:01.232Z,40.85
2022-11-20T10:37:30.143Z,45.05
2022-11-20T10:40:06.099Z,39.47
2022-11-20T10:42:58.132Z,42.58
2022-11-20T10:45:28.308Z,41.38
2022-11-20T10:48:21.934Z,42.25
2022-11-20T10:51:01.998Z,44.97
2022-11-20T10:53:59.215Z,48.10
2022-11-20T10:56:51.809Z,47.33
2022-11-20T10:59:33.952Z,52.38
2022-11-20T11:02:03.356Z,52.33
2022-11-20T11:04:43.835Z,51.53
2022-11-20T11:07:39.969Z,49.65
2022-11-20T11:10:19.631Z,53.17
2022-11-20T11:12:50.668Z,51.35
2022-11-20T11:15:26.740Z,55.00
2022-11-20T11:17:54.082Z,52.55
2022-11-20T11:20:23.992Z,51.95
2022-11-20T11:22:59.591Z,53.97
2022-11-20T11:25:31.907Z,54.40
2022-11-20T11:28:05.894Z,55.40
2022-11-20T11:30:43.932Z,55.80
2022-11-20T11:33:15.744Z,66.95
2022-11-20T11:35:58.486Z,78.00
2022-11-20T11:38:40.980Z,72.60
2022-11-20T11:41:15.876Z,65.67
2022-11-20T11:44:13.915Z,66.30
2022-11-20T11:46:50.550Z,59.83
2022-11-20T11:49:21.864Z,62.15
2022-11-20T11:52:01.345Z,58.95
2022-11-20T11:54:40.397Z,56.45
2022-11-20T11:57:21.493Z,58.75
2022-11-20T11:59:56.303Z,58.70
2022-11-20T12:03:01.332Z,61.05
2022-11-20T12:05:55.463Z,63.00
2022-11-20T12:08:28.355Z,63.30
2022-11-20T12:11:16.546Z,58.80
2022-11-20T12:13:59.325Z,54.00
2022-11-20T12:16:40.067Z,53.92
2022-11-20T12:19:13.334Z,51.88
2022-11-20T12:22:04.217Z,52.42
2022-11-20T12:24:40.776Z,50.30
2022-11-20T12:27:26.257Z,53.05
2022-11-20T12:30:17.107Z,49.13
2022-11-20T12:32:56.062Z,50.00
2022-11-20T12:35:47.177Z,53.13
2022-11-20T12:38:47.165Z,52.70
2022-11-20T12:41:53.570Z,53.70
2022-11-20T12:45:00.428Z,55.50
2022-11-20T12:48:07.417Z,55.60
2022-11-20T12:51:15.796Z,55.80
2022-11-20T12:54:07.356Z,59.42
2022-11-20T12:56:44.876Z,58.05
2022-11-20T12:59:39.078Z,58.38
2022-11-20T13:02:31.350Z,59.80
2022-11-20T13:05:01.313Z,59.13
2022-11-20T13:07:30.581Z,60.80
2022-11-20T13:10:00.404Z,64.63
2022-11-20T13:12:38.427Z,63.78
2022-11-20T13:15:26.418Z,63.90
2022-11-20T13:17:58.854Z,66.95
2022-11-20T13:20:26.579Z,66.17
2022-11-20T13:22:56.086Z,68.37
2022-11-20T13:25:30.258Z,67.18
2022-11-20T13:27:59.177Z,70.50
2022-11-20T13:30:33.315Z,66.25
2022-11-20T13:33:04.038Z,69.63
2022-11-20T13:35:39.047Z,67.97
2022-11-20T13:38:09.958Z,63.20
2022-11-20T13:40:52.648Z,66.65
2022-11-20T13:43:21.823Z,66.10
2022-11-20T13:46:06.141Z,68.93
2022-11-20T13:48:39.520Z,70.10
2022-11-20T13:51:24.552Z,72.63
2022-11-20T13:53:58.903Z,59.00
2022-11-20T13:56:54.477Z,62.55
2022-11-20T14:00:04.629Z,62.30
2022-11-20T14:02:34.463Z,59.63
2022-11-20T14:05:04.188Z,56.78
2022-11-20T14:07:42.555Z,58.78
2022-11-20T14:10:31.640Z,57.25
2022-11-20T14:13:27.369Z,61.45
2022-11-20T14:15:59.059Z,61.20
2022-11-20T14:18:27.516Z,65.53
2022-11-20T14:20:58.622Z,63.17
2022-11-20T14:23:37.454Z,61.83
2022-11-20T14:26:08.138Z,60.17
2022-11-20T14:28:37.874Z,58.20
2022-11-20T14:31:12.483Z,58.65
2022-11-20T14:33:42.289Z,59.85
2022-11-20T14:36:22.861Z,60.33
2022-11-20T14:38:52.050Z,59.28
2022-11-20T15:27:56.782Z,67.63
2022-11-20T15:33:24.693Z,59.85
2022-11-20T15:38:33.180Z,55.90
2022-11-20T15:41:01.295Z,52.75
2022-11-20T15:43:29.540Z,53.93
2022-11-20T15:46:10.398Z,53.58
2022-11-20T15:48:47.898Z,50.47
2022-11-20T15:54:26.298Z,49.53
2022-11-20T15:56:55.323Z,50.95
2022-11-20T15:59:26.625Z,45.28
2022-11-20T16:01:56.253Z,41.92
2022-11-20T16:07:32.541Z,41.28
2022-11-20T16:10:01.860Z,40.85
2022-11-20T16:13:12.032Z,42.20
2022-11-20T16:15:49.164Z,40.22
2022-11-20T16:18:28.251Z,39.17
2022-11-20T16:24:51.263Z,38.47
2022-11-20T16:27:26.790Z,35.97
2022-11-20T16:29:58.735Z,38.60
2022-11-20T16:32:29.529Z,36.60
2022-11-20T16:35:47.956Z,36.50
2022-11-20T16:38:30.502Z,36.73
2022-11-20T16:41:05.599Z,37.17
2022-11-20T16:43:38.812Z,39.30
2022-11-20T16:47:03.693Z,36.15
2022-11-20T16:49:34.787Z,34.05
2022-11-20T16:58:12.994Z,36.22
2022-11-20T17:03:42.626Z,35.05
2022-11-20T17:06:22.853Z,35.93
2022-11-20T17:09:19.502Z,35.72
2022-11-20T17:14:34.702Z,33.47
2022-11-20T17:17:09.076Z,33.47
2022-11-20T17:19:37.109Z,34.63
2022-11-20T17:22:13.488Z,33.60
2022-11-20T17:24:51.398Z,37.08
2022-11-20T17:27:30.091Z,35.63
2022-11-20T17:29:59.777Z,33.08
2022-11-20T17:32:31.522Z,33.13
2022-11-20T17:35:08.005Z,33.73
2022-11-20T17:37:35.271Z,31.65
2022-11-20T17:40:12.169Z,31.02
2022-11-20T17:45:27.376Z,31.33
2022-11-20T17:48:03.835Z,31.83
2022-11-20T17:50:30.936Z,31.65
2022-11-20T17:52:57.948Z,31.17
2022-11-20T17:55:26.183Z,33.05
2022-11-20T17:57:56.954Z,34.03
2022-11-20T18:00:25.656Z,33.40
2022-11-20T18:02:53.061Z,34.70
2022-11-20T18:05:20.839Z,33.45
2022-11-20T18:07:52.245Z,33.33
2022-11-20T18:10:19.888Z,34.40
2022-11-20T18:12:48.091Z,34.42
2022-11-20T18:15:15.506Z,35.27
2022-11-20T18:17:42.682Z,35.08
2022-11-20T18:20:35.144Z,33.85
2022-11-20T18:23:13.056Z,33.38
2022-11-20T18:25:50.414Z,35.03
2022-11-20T18:31:09.641Z,36.45
2022-11-20T18:33:39.431Z,36.30
2022-11-20T18:36:19.043Z,39.10
2022-11-20T18:38:49.631Z,38.92
2022-11-20T18:41:38.248Z,39.17
2022-11-20T18:44:26.222Z,41.07
2022-11-20T18:46:56.683Z,41.05
2022-11-20T18:49:26.172Z,43.30
2022-11-20T18:51:53.947Z,45.38
2022-11-20T18:54:21.954Z,44.63
2022-11-20T18:56:49.363Z,44.00
2022-11-20T18:59:18.646Z,46.13
2022-11-20T19:01:46.390Z,45.38
2022-11-20T19:04:15.804Z,43.40
2022-11-20T19:06:45.373Z,46.45
2022-11-20T19:09:14.665Z,51.20
2022-11-20T19:11:41.952Z,52.10
2022-11-20T19:14:09.327Z,57.03
2022-11-20T19:16:36.867Z,57.25
2022-11-20T19:19:05.693Z,61.05
2022-11-20T19:21:33.645Z,56.78
2022-11-20T19:24:02.868Z,60.97
2022-11-20T19:26:30.115Z,57.60
2022-11-20T19:28:59.311Z,51.67
2022-11-20T19:31:27.324Z,52.00
2022-11-20T19:33:57.840Z,51.45
2022-11-20T19:36:45.028Z,52.13
2022-11-20T19:39:44.081Z,48.33
2022-11-20T19:42:18.331Z,51.97
2022-11-20T19:44:54.630Z,52.65
2022-11-20T19:47:22.929Z,56.97
2022-11-20T19:49:50.905Z,54.70
2022-11-20T19:52:19.260Z,59.80
2022-11-20T19:54:46.268Z,54.78
2022-11-20T19:57:13.381Z,52.38
2022-11-20T20:02:22.666Z,45.33
2022-11-20T20:04:50.615Z,49.97
2022-11-20T20:12:41.009Z,46.40
2022-11-20T20:15:12.544Z,47.83
2022-11-20T20:17:39.547Z,52.22
2022-11-20T20:20:13.218Z,53.97
2022-11-20T20:22:43.429Z,57.22
2022-11-20T20:25:12.144Z,53.08
2022-11-20T20:30:23.445Z,52.90
2022-11-20T20:32:56.128Z,52.60
2022-11-20T20:35:27.215Z,56.08
2022-11-20T20:38:03.374Z,59.08
2022-11-20T20:43:30.539Z,52.05
2022-11-20T20:46:03.810Z,61.47
2022-11-20T20:48:30.900Z,62.53
2022-11-20T20:51:09.000Z,64.87
2022-11-20T20:54:12.471Z,68.43
2022-11-20T21:04:00.679Z,76.55
2022-11-20T21:12:11.389Z,78.72
2022-11-20T21:17:29.104Z,67.33
2022-11-20T21:20:11.732Z,72.55
2022-11-20T21:25:27.119Z,66.60
2022-11-20T21:27:58.353Z,64.47
2022-11-20T21:30:26.870Z,68.40
2022-11-20T21:38:27.252Z,55.08
2022-11-20T21:41:00.753Z,59.38
2022-11-20T21:43:45.660Z,63.97
2022-11-20T21:46:15.370Z,59.40
2022-11-20T21:48:44.462Z,61.10
2022-11-20T21:51:15.948Z,60.30
2022-11-20T21:53:44.266Z,57.35
2022-11-20T21:56:16.348Z,59.57
2022-11-20T21:58:46.917Z,53.67
2022-11-20T22:01:24.100Z,59.20
2022-11-20T22:03:59.763Z,51.47
2022-11-20T22:06:32.698Z,53.90
2022-11-20T22:09:00.504Z,57.10
2022-11-20T22:11:30.638Z,61.88
2022-11-20T22:14:16.393Z,58.65
2022-11-20T22:16:44.334Z,57.05
2022-11-20T22:19:19.507Z,63.15
2022-11-20T22:21:49.259Z,57.25
2022-11-20T22:24:18.858Z,55.63
2022-11-20T22:26:46.777Z,57.30
2022-11-20T22:29:19.691Z,59.40
2022-11-20T22:31:47.861Z,68.00
2022-11-20T22:34:15.446Z,66.70
2022-11-20T22:36:42.814Z,73.47
2022-11-20T22:39:09.998Z,70.80
2022-11-20T22:41:40.142Z,72.15
2022-11-20T22:44:08.218Z,69.88
2022-11-20T22:46:38.181Z,69.95
2022-11-20T22:49:09.283Z,66.95
2022-11-20T22:51:39.504Z,69.32
2022-11-20T22:54:07.021Z,72.65
2022-11-20T22:56:35.020Z,67.05
2022-11-20T22:59:02.407Z,67.55
2022-11-20T23:01:31.790Z,67.18
2022-11-20T23:04:01.599Z,66.10
2022-11-20T23:06:29.164Z,60.25
2022-11-20T23:08:57.071Z,68.03
2022-11-20T23:11:29.968Z,67.30
2022-11-20T23:13:59.412Z,62.70
2022-11-20T23:16:29.530Z,65.95
2022-11-20T23:19:06.411Z,69.78
2022-11-20T23:21:34.954Z,66.40
2022-11-20T23:24:09.071Z,66.57
2022-11-20T23:26:39.614Z,61.28
2022-11-20T23:29:21.378Z,67.15
2022-11-20T23:31:50.033Z,64.37
2022-11-20T23:34:17.969Z,67.13
2022-11-20T23:36:46.323Z,67.10
2022-11-20T23:39:15.596Z,68.30
2022-11-20T23:41:43.536Z,66.32
2022-11-20T23:46:53.842Z,62.03
2022-11-20T23:52:05.279Z,62.67
2022-11-20T23:54:44.968Z,60.17
2022-11-20T23:57:12.471Z,61.15
2022-11-20T23:59:39.983Z,58.60
